createdAt,value
2023-05-21T00:00:04.286Z,117.98
2023-05-21T00:01:04.279Z,113.90
2023-05-21T00:02:04.273Z,113.14
2023-05-21T00:03:04.371Z,111.79
2023-05-21T00:04:04.383Z,112.53
2023-05-21T00:05:04.248Z,109.31
2023-05-21T00:06:04.330Z,108.33
2023-05-21T00:07:04.206Z,110.17
2023-05-21T00:08:04.199Z,105.81
2023-05-21T00:09:04.188Z,109.17
2023-05-21T00:10:04.196Z,112.38
2023-05-21T00:11:04.200Z,111.27
2023-05-21T00:12:04.169Z,110.90
2023-05-21T00:13:04.176Z,115.55
2023-05-21T00:14:04.149Z,116.59
2023-05-21T00:15:04.145Z,117.32
2023-05-21T00:16:04.188Z,118.82
2023-05-21T00:17:04.115Z,120.43
2023-05-21T00:18:04.126Z,119.07
2023-05-21T00:19:04.100Z,118.56
2023-05-21T00:20:04.121Z,119.66
2023-05-21T00:21:04.096Z,120.09
2023-05-21T00:22:04.052Z,120.52
2023-05-21T00:23:04.120Z,119.15
2023-05-21T00:24:04.028Z,115.79
2023-05-21T00:25:04.062Z,112.68
2023-05-21T00:26:04.045Z,110.03
2023-05-21T00:27:04.012Z,106.81
2023-05-21T00:28:03.999Z,109.24
2023-05-21T00:29:03.999Z,109.67
2023-05-21T00:30:03.992Z,108.19
2023-05-21T00:31:03.960Z,107.57
2023-05-21T00:32:04.040Z,108.96
2023-05-21T00:33:04.068Z,107.22
2023-05-21T00:34:03.930Z,107.84
2023-05-21T00:35:03.971Z,107.63
2023-05-21T00:36:03.902Z,108.05
2023-05-21T00:37:03.917Z,108.05
2023-05-21T00:38:03.901Z,103.78
2023-05-21T00:39:03.882Z,99.07
2023-05-21T00:40:03.870Z,100.55
2023-05-21T00:41:03.873Z,102.14
2023-05-21T00:42:03.829Z,101.77
2023-05-21T00:43:03.887Z,99.78
2023-05-21T00:44:03.810Z,98.66
2023-05-21T00:45:03.802Z,99.54
2023-05-21T00:46:03.854Z,99.72
2023-05-21T00:47:03.784Z,98.15
2023-05-21T00:48:03.851Z,95.04
2023-05-21T00:49:03.800Z,96.40
2023-05-21T00:50:03.756Z,97.52
2023-05-21T00:51:03.757Z,94.29
2023-05-21T00:52:03.761Z,94.66
2023-05-21T00:53:03.722Z,97.41
2023-05-21T00:54:03.711Z,97.92
2023-05-21T00:55:03.742Z,98.96
2023-05-21T00:56:03.703Z,96.24
2023-05-21T00:57:03.697Z,94.40
2023-05-21T00:58:03.702Z,95.04
2023-05-21T00:59:03.696Z,96.29
2023-05-21T01:00:03.682Z,97.01
2023-05-21T01:01:03.797Z,96.51
2023-05-21T01:02:03.659Z,97.35
2023-05-21T01:03:03.731Z,95.58
2023-05-21T01:04:03.630Z,96.62
2023-05-21T01:05:03.611Z,96.18
2023-05-21T01:06:03.629Z,96.24
2023-05-21T01:07:03.614Z,95.53
2023-05-21T01:08:03.577Z,94.56
2023-05-21T01:09:05.088Z,94.85
2023-05-21T01:10:03.598Z,94.21
2023-05-21T01:11:03.545Z,94.32
2023-05-21T01:12:03.578Z,94.35
2023-05-21T01:13:03.553Z,95.07
2023-05-21T01:14:03.516Z,93.48
2023-05-21T01:15:03.489Z,94.75
2023-05-21T01:16:03.513Z,93.58
2023-05-21T01:17:03.598Z,93.38
2023-05-21T01:18:03.661Z,92.76
2023-05-21T01:19:03.589Z,93.90
2023-05-21T01:20:03.479Z,93.48
2023-05-21T01:21:03.451Z,93.48
2023-05-21T01:22:03.414Z,91.25
2023-05-21T01:23:03.450Z,89.40
2023-05-21T01:24:03.396Z,88.00
2023-05-21T01:25:03.413Z,87.72
2023-05-21T01:26:03.401Z,86.11
2023-05-21T01:27:03.363Z,84.63
2023-05-21T01:28:03.355Z,83.13
2023-05-21T01:29:03.381Z,83.96
2023-05-21T01:30:03.385Z,84.63
2023-05-21T01:31:03.333Z,87.27
2023-05-21T01:32:03.348Z,88.28
2023-05-21T01:33:03.613Z,89.50
2023-05-21T01:34:03.345Z,90.07
2023-05-21T01:35:03.320Z,88.65
2023-05-21T01:36:03.301Z,88.28
2023-05-21T01:37:03.277Z,87.54
2023-05-21T01:38:03.324Z,86.20
2023-05-21T01:39:03.266Z,84.21
2023-05-21T01:40:03.268Z,84.13
2023-05-21T01:41:03.255Z,82.39
2023-05-21T01:42:03.216Z,80.58
2023-05-21T01:43:03.251Z,78.62
2023-05-21T01:44:03.214Z,80.12
2023-05-21T01:45:03.239Z,83.13
2023-05-21T01:46:03.206Z,83.87
2023-05-21T01:47:03.207Z,82.64
2023-05-21T01:48:03.241Z,82.23
2023-05-21T01:49:03.138Z,81.44
2023-05-21T01:50:03.197Z,79.14
2023-05-21T01:51:03.145Z,77.25
2023-05-21T01:52:03.131Z,73.92
2023-05-21T01:53:03.158Z,69.86
2023-05-21T01:54:03.150Z,69.34
2023-05-21T01:55:03.125Z,68.44
2023-05-21T01:56:03.120Z,67.51
2023-05-21T01:57:03.099Z,66.54
2023-05-21T01:58:03.044Z,65.76
2023-05-21T01:59:03.069Z,64.90
2023-05-21T02:00:03.078Z,65.87
2023-05-21T02:01:03.075Z,61.94
2023-05-21T02:02:03.030Z,62.44
2023-05-21T02:03:03.159Z,62.96
2023-05-21T02:04:03.179Z,61.89
2023-05-21T02:05:03.004Z,61.71
2023-05-21T02:06:02.967Z,59.31
2023-05-21T02:07:02.971Z,58.49
2023-05-21T02:08:03.032Z,57.84
2023-05-21T02:09:02.970Z,58.90
2023-05-21T02:10:02.966Z,60.86
2023-05-21T02:11:02.921Z,62.40
2023-05-21T02:12:02.902Z,65.51
2023-05-21T02:13:02.898Z,68.27
2023-05-21T02:14:02.919Z,69.46
2023-05-21T02:15:02.888Z,68.22
2023-05-21T02:16:02.909Z,66.60
2023-05-21T02:17:02.869Z,67.51
2023-05-21T02:18:02.912Z,67.61
2023-05-21T02:19:02.941Z,67.18
2023-05-21T02:20:02.899Z,67.83
2023-05-21T02:21:02.897Z,66.49
2023-05-21T02:22:02.806Z,67.61
2023-05-21T02:23:02.840Z,67.78
2023-05-21T02:24:02.823Z,67.89
2023-05-21T02:25:02.815Z,66.02
2023-05-21T02:26:02.843Z,65.10
2023-05-21T02:27:02.752Z,64.65
2023-05-21T02:28:02.798Z,63.58
2023-05-21T02:29:02.761Z,64.50
2023-05-21T02:30:02.722Z,64.70
2023-05-21T02:31:02.765Z,64.35
2023-05-21T02:32:02.780Z,63.82
2023-05-21T02:33:02.801Z,64.55
2023-05-21T02:34:02.758Z,64.40
2023-05-21T02:35:02.694Z,63.96
2023-05-21T02:36:02.695Z,63.58
2023-05-21T02:37:02.690Z,62.35
2023-05-21T02:38:02.637Z,63.00
2023-05-21T02:39:02.726Z,61.53
2023-05-21T02:40:02.629Z,60.60
2023-05-21T02:41:02.625Z,61.53
2023-05-21T02:42:02.643Z,61.66
2023-05-21T02:43:02.625Z,61.26
2023-05-21T02:44:02.605Z,59.48
2023-05-21T02:45:02.599Z,58.90
2023-05-21T02:46:02.644Z,57.92
2023-05-21T02:47:02.555Z,54.72
2023-05-21T02:48:03.276Z,54.08
2023-05-21T02:49:02.611Z,53.81
2023-05-21T02:50:02.552Z,53.98
2023-05-21T02:51:02.601Z,54.40
2023-05-21T02:52:02.519Z,53.81
2023-05-21T02:53:02.509Z,53.36
2023-05-21T02:54:02.500Z,53.36
2023-05-21T02:55:02.520Z,53.43
2023-05-21T02:56:02.480Z,53.40
2023-05-21T02:57:02.447Z,52.89
2023-05-21T02:58:02.474Z,51.31
2023-05-21T02:59:02.450Z,50.69
2023-05-21T03:00:02.466Z,50.24
2023-05-21T03:01:02.482Z,49.76
2023-05-21T03:02:02.489Z,50.60
2023-05-21T03:03:02.477Z,52.01
2023-05-21T03:04:02.384Z,52.30
2023-05-21T03:05:02.388Z,52.43
2023-05-21T03:06:02.374Z,51.69
2023-05-21T03:07:02.346Z,51.85
2023-05-21T03:08:02.358Z,51.63
2023-05-21T03:09:02.341Z,51.79
2023-05-21T03:10:02.326Z,52.30
2023-05-21T03:11:02.330Z,52.08
2023-05-21T03:12:02.280Z,50.66
2023-05-21T03:13:02.329Z,49.18
2023-05-21T03:14:02.357Z,48.44
2023-05-21T03:15:02.271Z,47.27
2023-05-21T03:16:02.248Z,47.43
2023-05-21T03:17:02.356Z,47.92
2023-05-21T03:18:02.268Z,48.22
2023-05-21T03:19:02.284Z,47.22
2023-05-21T03:20:02.205Z,47.30
2023-05-21T03:21:02.192Z,46.96
2023-05-21T03:22:02.180Z,47.06
2023-05-21T03:23:02.185Z,46.80
2023-05-21T03:24:02.218Z,45.14
2023-05-21T03:25:02.228Z,45.29
2023-05-21T03:26:02.280Z,45.05
2023-05-21T03:27:02.171Z,45.34
2023-05-21T03:28:02.126Z,45.93
2023-05-21T03:29:02.124Z,47.11
2023-05-21T03:30:02.163Z,47.43
2023-05-21T03:31:02.087Z,47.84
2023-05-21T03:32:02.154Z,47.19
2023-05-21T03:33:02.154Z,46.44
2023-05-21T03:34:02.103Z,46.03
2023-05-21T03:35:02.078Z,47.01
2023-05-21T03:36:02.092Z,47.06
2023-05-21T03:37:02.037Z,47.17
2023-05-21T03:38:02.023Z,46.64
2023-05-21T03:39:02.013Z,46.13
2023-05-21T03:40:02.015Z,47.11
2023-05-21T03:41:02.032Z,47.11
2023-05-21T03:42:01.977Z,47.03
2023-05-21T03:43:01.966Z,47.95
2023-05-21T03:44:01.982Z,48.11
2023-05-21T03:45:01.993Z,48.17
2023-05-21T03:46:01.966Z,47.73
2023-05-21T03:47:01.964Z,47.59
2023-05-21T03:48:02.069Z,47.03
2023-05-21T03:49:01.900Z,47.17
2023-05-21T03:50:01.963Z,47.01
2023-05-21T03:51:01.923Z,47.01
2023-05-21T03:52:01.899Z,47.62
2023-05-21T03:53:01.947Z,47.73
2023-05-21T03:54:01.854Z,47.06
2023-05-21T03:55:01.874Z,47.09
2023-05-21T03:56:01.854Z,47.22
2023-05-21T03:57:01.889Z,46.59
2023-05-21T03:58:01.854Z,45.19
2023-05-21T03:59:01.851Z,43.69
2023-05-21T04:00:01.844Z,43.46
2023-05-21T04:01:01.822Z,42.89
2023-05-21T04:02:01.753Z,44.01
2023-05-21T04:03:01.981Z,44.29
2023-05-21T04:04:01.880Z,43.83
2023-05-21T04:05:01.783Z,44.24
2023-05-21T04:06:01.765Z,44.47
2023-05-21T04:07:01.725Z,43.78
2023-05-21T04:08:01.704Z,44.01
2023-05-21T04:09:01.714Z,44.01
2023-05-21T04:10:01.736Z,43.64
2023-05-21T04:11:01.692Z,42.37
2023-05-21T04:12:01.704Z,42.46
2023-05-21T04:13:01.658Z,43.33
2023-05-21T04:14:01.663Z,44.33
2023-05-21T04:15:01.683Z,44.38
2023-05-21T04:16:01.757Z,44.52
2023-05-21T04:17:01.684Z,44.06
2023-05-21T04:18:01.810Z,42.84
2023-05-21T04:19:01.662Z,41.90
2023-05-21T04:20:01.618Z,40.85
2023-05-21T04:21:01.607Z,40.07
2023-05-21T04:22:01.610Z,39.21
2023-05-21T04:23:01.562Z,39.69
2023-05-21T04:24:01.533Z,40.11
2023-05-21T04:25:01.558Z,41.09
2023-05-21T04:26:01.611Z,41.95
2023-05-21T04:27:01.750Z,42.37
2023-05-21T04:28:01.573Z,43.33
2023-05-21T04:29:01.484Z,44.57
2023-05-21T04:30:01.569Z,45.00
2023-05-21T04:31:01.588Z,45.68
2023-05-21T04:32:01.482Z,45.88
2023-05-21T04:33:01.521Z,45.83
2023-05-21T04:34:01.567Z,45.83
2023-05-21T04:35:01.430Z,45.14
2023-05-21T04:36:01.436Z,45.24
2023-05-21T04:37:01.404Z,45.44
2023-05-21T04:38:02.964Z,45.93
2023-05-21T04:39:01.394Z,45.44
2023-05-21T04:40:01.416Z,45.53
2023-05-21T04:41:01.378Z,45.44
2023-05-21T04:42:01.354Z,46.08
2023-05-21T04:43:01.346Z,46.96
2023-05-21T04:44:01.329Z,47.01
2023-05-21T04:45:01.336Z,47.78
2023-05-21T04:46:01.345Z,47.89
2023-05-21T04:47:01.374Z,47.57
2023-05-21T04:48:01.393Z,47.11
2023-05-21T04:49:01.284Z,47.01
2023-05-21T04:50:01.313Z,46.90
2023-05-21T04:51:01.260Z,46.03
2023-05-21T04:52:01.346Z,46.34
2023-05-21T04:53:01.234Z,45.48
2023-05-21T04:54:01.235Z,45.34
2023-05-21T04:55:01.225Z,45.73
2023-05-21T04:56:01.210Z,45.73
2023-05-21T04:57:01.232Z,46.34
2023-05-21T04:58:01.242Z,47.01
2023-05-21T04:59:01.949Z,47.03
2023-05-21T05:00:01.226Z,47.11
2023-05-21T05:01:01.288Z,46.96
2023-05-21T05:02:01.164Z,47.41
2023-05-21T05:03:01.292Z,47.49
2023-05-21T05:04:01.183Z,47.33
2023-05-21T05:05:01.142Z,47.06
2023-05-21T05:06:01.142Z,47.27
2023-05-21T05:07:01.097Z,47.03
2023-05-21T05:08:01.115Z,48.03
2023-05-21T05:09:01.092Z,47.65
2023-05-21T05:10:01.112Z,47.17
2023-05-21T05:11:01.080Z,46.03
2023-05-21T05:12:01.077Z,44.66
2023-05-21T05:13:01.035Z,45.73
2023-05-21T05:14:01.059Z,45.83
2023-05-21T05:15:01.059Z,45.48
2023-05-21T05:16:01.075Z,46.54
2023-05-21T05:17:01.062Z,46.34
2023-05-21T05:18:01.052Z,46.64
2023-05-21T05:19:01.010Z,45.88
2023-05-21T05:20:01.015Z,45.88
2023-05-21T05:21:01.025Z,44.85
2023-05-21T05:22:00.968Z,44.10
2023-05-21T05:23:01.015Z,43.92
2023-05-21T05:24:00.918Z,44.10
2023-05-21T05:25:00.927Z,43.51
2023-05-21T05:26:00.939Z,44.01
2023-05-21T05:27:00.898Z,44.62
2023-05-21T05:28:00.913Z,45.05
2023-05-21T05:29:00.878Z,45.34
2023-05-21T05:30:00.855Z,45.39
2023-05-21T05:31:00.912Z,44.43
2023-05-21T05:32:00.871Z,43.37
2023-05-21T05:33:00.950Z,43.55
2023-05-21T05:34:00.856Z,42.20
2023-05-21T05:35:02.364Z,41.74
2023-05-21T05:36:00.830Z,40.93
2023-05-21T05:37:00.861Z,40.15
2023-05-21T05:38:00.815Z,40.46
2023-05-21T05:39:00.793Z,40.73
2023-05-21T05:40:00.782Z,41.95
2023-05-21T05:41:00.750Z,42.20
2023-05-21T05:42:00.732Z,42.07
2023-05-21T05:43:00.800Z,42.67
2023-05-21T05:44:00.730Z,43.24
2023-05-21T05:45:00.731Z,43.33
2023-05-21T05:46:00.803Z,43.20
2023-05-21T05:47:00.701Z,42.84
2023-05-21T05:48:00.740Z,41.99
2023-05-21T05:49:00.668Z,40.46
2023-05-21T05:50:00.726Z,39.51
2023-05-21T05:51:00.652Z,38.71
2023-05-21T05:52:00.648Z,39.54
2023-05-21T05:53:00.623Z,39.92
2023-05-21T05:54:00.652Z,41.41
2023-05-21T05:55:00.622Z,42.07
2023-05-21T05:56:00.586Z,42.58
2023-05-21T05:57:00.582Z,42.58
2023-05-21T05:58:00.600Z,42.58
2023-05-21T05:59:00.542Z,42.33
2023-05-21T06:00:00.544Z,42.33
2023-05-21T06:01:00.560Z,41.37
2023-05-21T06:02:00.544Z,40.53
2023-05-21T06:03:00.638Z,39.77
2023-05-21T06:04:00.531Z,40.53
2023-05-21T06:05:00.532Z,41.70
2023-05-21T06:06:00.540Z,42.93
2023-05-21T06:07:00.594Z,42.80
2023-05-21T06:08:00.455Z,41.99
2023-05-21T06:09:00.468Z,40.26
2023-05-21T06:10:00.510Z,38.21
2023-05-21T06:11:00.471Z,37.83
2023-05-21T06:12:00.459Z,38.67
2023-05-21T06:13:00.433Z,40.38
2023-05-21T06:14:00.457Z,41.01
2023-05-21T06:15:00.431Z,41.82
2023-05-21T06:16:00.482Z,41.33
2023-05-21T06:17:00.394Z,39.80
2023-05-21T06:18:00.555Z,40.07
2023-05-21T06:19:00.392Z,40.42
2023-05-21T06:20:00.463Z,42.37
2023-05-21T06:21:00.335Z,44.95
2023-05-21T06:22:00.348Z,45.58
2023-05-21T06:23:00.304Z,46.64
2023-05-21T06:24:00.328Z,45.24
2023-05-21T06:25:00.317Z,43.28
2023-05-21T06:26:00.310Z,42.07
2023-05-21T06:27:00.302Z,40.73
2023-05-21T06:28:00.265Z,40.93
2023-05-21T06:29:00.238Z,41.95
2023-05-21T06:30:00.286Z,42.76
2023-05-21T06:31:00.211Z,43.20
2023-05-21T06:32:00.223Z,43.74
2023-05-21T06:33:00.291Z,44.15
2023-05-21T06:34:00.512Z,43.15
2023-05-21T06:35:00.167Z,41.82
2023-05-21T06:36:00.196Z,41.21
2023-05-21T06:37:00.179Z,40.11
2023-05-21T06:38:00.173Z,40.49
2023-05-21T06:39:00.154Z,42.28
2023-05-21T06:40:00.184Z,44.52
2023-05-21T06:41:00.160Z,43.83
2023-05-21T06:42:00.161Z,43.51
2023-05-21T06:43:00.180Z,42.76
2023-05-21T06:44:00.154Z,41.41
2023-05-21T06:45:00.128Z,43.02
2023-05-21T06:46:00.210Z,43.11
2023-05-21T06:47:00.051Z,42.33
2023-05-21T06:48:00.141Z,42.67
2023-05-21T06:49:00.052Z,43.11
2023-05-21T06:50:00.067Z,42.58
2023-05-21T06:51:00.030Z,43.37
2023-05-21T06:52:00.053Z,43.28
2023-05-21T06:53:00.003Z,42.97
2023-05-21T06:53:59.997Z,44.19
2023-05-21T06:55:00.065Z,43.60
2023-05-21T06:56:00.006Z,46.54
2023-05-21T06:56:59.965Z,47.38
2023-05-21T06:58:00.016Z,48.06
2023-05-21T06:58:59.951Z,48.72
2023-05-21T06:59:59.919Z,50.06
2023-05-21T07:00:59.956Z,51.16
2023-05-21T07:02:00.178Z,52.60
2023-05-21T07:03:00.001Z,52.60
2023-05-21T07:03:59.916Z,51.79
2023-05-21T07:04:59.901Z,49.88
2023-05-21T07:05:59.854Z,50.15
2023-05-21T07:06:59.905Z,51.31
2023-05-21T07:07:59.849Z,51.38
2023-05-21T07:08:59.823Z,51.19
2023-05-21T07:09:59.868Z,50.33
2023-05-21T07:10:59.818Z,51.34
2023-05-21T07:11:59.835Z,50.18
2023-05-21T07:12:59.779Z,51.38
2023-05-21T07:13:59.793Z,53.03
2023-05-21T07:14:59.810Z,52.93
2023-05-21T07:15:59.776Z,52.56
2023-05-21T07:16:59.878Z,53.53
2023-05-21T07:17:59.793Z,53.74
2023-05-21T07:18:59.810Z,53.64
2023-05-21T07:19:59.760Z,52.14
2023-05-21T07:20:59.738Z,51.22
2023-05-21T07:21:59.775Z,49.59
2023-05-21T07:22:59.720Z,50.85
2023-05-21T07:23:59.687Z,51.63
2023-05-21T07:24:59.656Z,53.06
2023-05-21T07:25:59.677Z,53.06
2023-05-21T07:26:59.738Z,54.19
2023-05-21T07:27:59.677Z,54.47
2023-05-21T07:28:59.687Z,53.67
2023-05-21T07:29:59.640Z,53.57
2023-05-21T07:30:59.627Z,54.15
2023-05-21T07:31:59.651Z,53.84
2023-05-21T07:32:59.625Z,53.33
2023-05-21T07:33:59.573Z,52.76
2023-05-21T07:34:59.567Z,51.47
2023-05-21T07:35:59.545Z,52.79
2023-05-21T07:36:59.555Z,55.33
2023-05-21T07:37:59.643Z,56.90
2023-05-21T07:38:59.632Z,56.18
2023-05-21T07:39:59.518Z,54.79
2023-05-21T07:40:59.584Z,51.63
2023-05-21T07:41:59.592Z,49.76
2023-05-21T07:42:59.511Z,50.82
2023-05-21T07:43:59.534Z,54.05
2023-05-21T07:44:59.482Z,52.73
2023-05-21T07:45:59.491Z,51.28
2023-05-21T07:46:59.523Z,48.56
2023-05-21T07:47:59.527Z,48.75
2023-05-21T07:48:59.447Z,49.35
2023-05-21T07:49:59.449Z,52.89
2023-05-21T07:50:59.433Z,56.07
2023-05-21T07:51:59.444Z,56.79
2023-05-21T07:52:59.489Z,57.10
2023-05-21T07:53:59.372Z,54.15
2023-05-21T07:54:59.370Z,55.48
2023-05-21T07:55:59.369Z,56.41
2023-05-21T07:56:59.350Z,56.11
2023-05-21T07:57:59.389Z,59.91
2023-05-21T07:58:59.370Z,60.38
2023-05-21T07:59:59.333Z,60.25
2023-05-21T08:00:59.305Z,62.44
2023-05-21T08:01:59.313Z,61.98
2023-05-21T08:02:59.385Z,64.01
2023-05-21T08:03:59.434Z,63.24
2023-05-21T08:04:59.324Z,63.58
2023-05-21T08:05:59.261Z,62.35
2023-05-21T08:06:59.255Z,62.21
2023-05-21T08:07:59.315Z,61.62
2023-05-21T08:08:59.292Z,65.36
2023-05-21T08:09:59.235Z,65.05
2023-05-21T08:10:59.225Z,65.15
2023-05-21T08:11:59.226Z,64.60
2023-05-21T08:12:59.184Z,61.98
2023-05-21T08:13:59.193Z,62.30
2023-05-21T08:14:59.229Z,64.90
2023-05-21T08:15:59.202Z,66.39
2023-05-21T08:16:59.164Z,71.65
2023-05-21T08:17:59.165Z,73.08
2023-05-21T08:18:59.243Z,72.96
2023-05-21T08:19:59.129Z,73.59
2023-05-21T08:20:59.149Z,73.53
2023-05-21T08:21:59.161Z,73.40
2023-05-21T08:22:59.082Z,73.79
2023-05-21T08:23:59.109Z,72.58
2023-05-21T08:24:59.084Z,73.15
2023-05-21T08:25:59.095Z,71.04
2023-05-21T08:26:59.072Z,69.29
2023-05-21T08:27:59.058Z,68.95
2023-05-21T08:28:59.019Z,66.81
2023-05-21T08:29:59.124Z,67.56
2023-05-21T08:30:58.988Z,65.46
2023-05-21T08:31:59.069Z,64.21
2023-05-21T08:32:59.101Z,63.24
2023-05-21T08:33:58.990Z,62.30
2023-05-21T08:34:58.954Z,66.60
2023-05-21T08:35:58.933Z,68.00
2023-05-21T08:36:58.955Z,70.80
2023-05-21T08:37:58.921Z,69.98
2023-05-21T08:38:58.956Z,66.23
2023-05-21T08:39:58.938Z,59.95
2023-05-21T08:40:58.936Z,63.48
2023-05-21T08:41:58.877Z,65.30
2023-05-21T08:42:58.856Z,65.82
2023-05-21T08:43:58.911Z,68.39
2023-05-21T08:44:58.847Z,66.76
2023-05-21T08:45:58.900Z,68.61
2023-05-21T08:46:58.815Z,69.29
2023-05-21T08:47:58.966Z,66.02
2023-05-21T08:48:58.798Z,67.29
2023-05-21T08:49:58.811Z,69.17
2023-05-21T08:50:58.785Z,67.45
2023-05-21T08:51:58.761Z,69.98
2023-05-21T08:52:58.809Z,73.72
2023-05-21T08:53:58.763Z,73.40
2023-05-21T08:54:58.749Z,75.38
2023-05-21T08:55:58.757Z,74.97
2023-05-21T08:56:58.711Z,77.10
2023-05-21T08:57:58.721Z,73.27
2023-05-21T08:58:58.730Z,70.04
2023-05-21T08:59:58.715Z,67.94
2023-05-21T09:00:58.701Z,66.23
2023-05-21T09:01:58.692Z,70.33
2023-05-21T09:02:58.718Z,68.27
2023-05-21T09:04:05.023Z,66.02
2023-05-21T09:04:58.628Z,67.13
2023-05-21T09:05:58.650Z,66.18
2023-05-21T09:06:58.599Z,65.82
2023-05-21T09:07:58.596Z,66.76
2023-05-21T09:08:58.586Z,69.12
2023-05-21T09:09:58.575Z,66.76
2023-05-21T09:10:58.704Z,65.61
2023-05-21T09:11:58.611Z,68.61
2023-05-21T09:12:58.552Z,71.53
2023-05-21T09:13:58.557Z,72.77
2023-05-21T09:14:58.547Z,70.27
2023-05-21T09:15:58.516Z,70.45
2023-05-21T09:16:58.667Z,67.08
2023-05-21T09:17:58.534Z,67.61
2023-05-21T09:18:58.495Z,67.24
2023-05-21T09:19:58.472Z,67.83
2023-05-21T09:20:58.499Z,68.11
2023-05-21T09:21:58.465Z,69.81
2023-05-21T09:22:58.456Z,72.20
2023-05-21T09:23:58.425Z,75.65
2023-05-21T09:24:58.445Z,74.90
2023-05-21T09:25:58.439Z,70.86
2023-05-21T09:26:58.541Z,69.29
2023-05-21T09:27:58.422Z,71.29
2023-05-21T09:28:58.406Z,71.71
2023-05-21T09:29:58.370Z,72.02
2023-05-21T09:30:58.435Z,70.45
2023-05-21T09:31:58.336Z,66.23
2023-05-21T09:32:58.359Z,62.67
2023-05-21T09:33:58.344Z,58.98
2023-05-21T09:34:58.315Z,61.75
2023-05-21T09:35:58.302Z,63.05
2023-05-21T09:36:58.326Z,60.95
2023-05-21T09:37:58.323Z,58.90
2023-05-21T09:38:58.278Z,59.44
2023-05-21T09:39:58.286Z,60.82
2023-05-21T09:40:58.310Z,64.40
2023-05-21T09:41:58.253Z,63.96
2023-05-21T09:42:58.226Z,64.16
2023-05-21T09:43:58.210Z,65.30
2023-05-21T09:44:58.233Z,66.81
2023-05-21T09:46:00.441Z,66.65
2023-05-21T09:46:58.286Z,68.00
2023-05-21T09:47:58.296Z,67.29
2023-05-21T09:48:58.167Z,69.00
2023-05-21T09:49:58.167Z,74.18
2023-05-21T09:50:58.161Z,78.40
2023-05-21T09:51:58.200Z,78.18
2023-05-21T09:52:58.128Z,81.36
2023-05-21T09:53:58.274Z,90.95
2023-05-21T09:54:58.160Z,93.69
2023-05-21T09:55:58.148Z,94.00
2023-05-21T09:56:58.122Z,93.07
2023-05-21T09:57:58.089Z,93.58
2023-05-21T09:58:58.060Z,94.64
2023-05-21T09:59:58.068Z,94.43
2023-05-21T10:00:58.166Z,91.85
2023-05-21T10:01:58.079Z,88.00
2023-05-21T10:02:58.076Z,87.00
2023-05-21T10:03:58.065Z,81.20
2023-05-21T10:04:58.056Z,81.83
2023-05-21T10:05:57.993Z,82.23
2023-05-21T10:06:57.981Z,82.88
2023-05-21T10:07:58.007Z,81.51
2023-05-21T10:08:57.992Z,82.31
2023-05-21T10:09:58.057Z,79.96
2023-05-21T10:10:57.954Z,83.21
2023-05-21T10:11:57.945Z,84.29
2023-05-21T10:12:57.929Z,80.58
2023-05-21T10:13:57.911Z,79.89
2023-05-21T10:14:57.913Z,77.67
2023-05-21T10:15:57.917Z,79.21
2023-05-21T10:16:57.881Z,81.83
2023-05-21T10:17:57.987Z,84.81
2023-05-21T10:18:57.914Z,84.72
2023-05-21T10:19:57.841Z,86.37
2023-05-21T10:20:57.843Z,91.65
2023-05-21T10:21:57.867Z,94.75
2023-05-21T10:22:57.819Z,93.69
2023-05-21T10:23:57.853Z,87.36
2023-05-21T10:24:57.832Z,83.54
2023-05-21T10:25:57.809Z,86.37
2023-05-21T10:26:57.795Z,88.93
2023-05-21T10:27:57.812Z,90.66
2023-05-21T10:28:57.766Z,94.13
2023-05-21T10:29:57.766Z,100.61
2023-05-21T10:30:57.761Z,100.55
2023-05-21T10:31:57.780Z,100.85
2023-05-21T10:32:57.954Z,102.20
2023-05-21T10:33:57.730Z,104.95
2023-05-21T10:34:59.307Z,100.31
2023-05-21T10:35:57.746Z,94.29
2023-05-21T10:36:57.727Z,94.53
2023-05-21T10:37:57.673Z,98.55
2023-05-21T10:38:57.668Z,101.40
2023-05-21T10:39:57.691Z,98.84
2023-05-21T10:40:57.629Z,95.15
2023-05-21T10:41:59.220Z,102.51
2023-05-21T10:42:57.674Z,103.14
2023-05-21T10:43:57.627Z,104.95
2023-05-21T10:44:57.606Z,107.57
2023-05-21T10:45:57.590Z,103.91
2023-05-21T10:46:57.579Z,110.32
2023-05-21T10:47:57.623Z,110.90
2023-05-21T10:48:57.583Z,111.19
2023-05-21T10:49:57.578Z,106.07
2023-05-21T10:50:57.566Z,100.31
2023-05-21T10:51:57.530Z,104.04
2023-05-21T10:52:57.511Z,102.51
2023-05-21T10:53:57.498Z,103.59
2023-05-21T10:54:57.545Z,102.64
2023-05-21T10:55:57.489Z,97.86
2023-05-21T10:56:57.510Z,103.08
2023-05-21T10:57:57.463Z,108.19
2023-05-21T10:58:57.509Z,113.44
2023-05-21T10:59:57.485Z,114.68
2023-05-21T11:00:57.501Z,116.92
2023-05-21T11:01:57.424Z,116.75
2023-05-21T11:02:57.464Z,111.49
2023-05-21T11:03:57.445Z,112.76
2023-05-21T11:04:57.421Z,115.87
2023-05-21T11:05:57.389Z,117.16
2023-05-21T11:06:57.450Z,112.91
2023-05-21T11:07:57.980Z,114.84
2023-05-21T11:08:57.357Z,117.08
2023-05-21T11:09:57.352Z,115.95
2023-05-21T11:10:57.393Z,121.39
2023-05-21T11:11:57.361Z,120.43
2023-05-21T11:12:57.329Z,117.90
2023-05-21T11:13:57.338Z,109.10
2023-05-21T11:14:57.321Z,104.56
2023-05-21T11:15:57.291Z,109.17
2023-05-21T11:16:57.292Z,113.98
2023-05-21T11:17:57.290Z,115.31
2023-05-21T11:18:57.292Z,107.98
2023-05-21T11:19:57.264Z,105.81
2023-05-21T11:20:57.238Z,109.60
2023-05-21T11:21:57.340Z,109.31
2023-05-21T11:22:57.236Z,112.91
2023-05-21T11:23:57.215Z,117.57
2023-05-21T11:24:57.194Z,119.66
2023-05-21T11:25:57.179Z,121.30
2023-05-21T11:26:57.200Z,123.44
2023-05-21T11:27:57.171Z,122.45
2023-05-21T11:28:57.145Z,122.18
2023-05-21T11:29:57.125Z,124.54
2023-05-21T11:30:57.166Z,125.65
2023-05-21T11:31:57.106Z,117.40
2023-05-21T11:32:57.174Z,116.59
2023-05-21T11:33:57.089Z,115.00
2023-05-21T11:34:57.094Z,114.84
2023-05-21T11:35:57.063Z,112.68
2023-05-21T11:36:57.072Z,114.84
2023-05-21T11:37:57.037Z,111.93
2023-05-21T11:38:57.049Z,115.55
2023-05-21T11:39:57.068Z,118.65
2023-05-21T11:40:57.016Z,122.18
2023-05-21T11:41:57.014Z,116.75
2023-05-21T11:42:57.025Z,115.23
2023-05-21T11:43:56.980Z,112.38
2023-05-21T11:44:57.497Z,114.21
2023-05-21T11:45:56.986Z,109.31
2023-05-21T11:46:56.996Z,106.47
2023-05-21T11:47:56.950Z,105.54
2023-05-21T11:48:56.957Z,103.91
2023-05-21T11:49:56.925Z,100.43
2023-05-21T11:50:56.904Z,105.47
2023-05-21T11:51:56.927Z,103.53
2023-05-21T11:52:56.897Z,100.43
2023-05-21T11:53:56.920Z,100.92
2023-05-21T11:54:56.955Z,102.02
2023-05-21T11:55:56.904Z,102.95
2023-05-21T11:56:56.904Z,102.70
2023-05-21T11:57:56.851Z,111.34
2023-05-21T11:58:56.840Z,116.59
2023-05-21T11:59:56.847Z,120.87
2023-05-21T12:00:56.807Z,123.26
2023-05-21T12:01:56.796Z,121.30
2023-05-21T12:02:57.747Z,117.08
2023-05-21T12:03:56.848Z,118.56
2023-05-21T12:04:56.810Z,118.98
2023-05-21T12:05:56.801Z,115.87
2023-05-21T12:06:56.756Z,114.21
2023-05-21T12:07:56.887Z,110.68
2023-05-21T12:08:56.734Z,110.68
2023-05-21T12:09:56.746Z,112.61
2023-05-21T12:10:56.732Z,109.96
2023-05-21T12:11:56.791Z,109.03
2023-05-21T12:12:57.531Z,113.98
2023-05-21T12:13:56.747Z,111.56
2023-05-21T12:14:56.682Z,117.65
2023-05-21T12:15:56.671Z,115.79
2023-05-21T12:16:56.711Z,113.75
2023-05-21T12:17:56.732Z,118.40
2023-05-21T12:18:56.641Z,114.29
2023-05-21T12:19:56.640Z,115.31
2023-05-21T12:20:56.606Z,114.21
2023-05-21T12:21:56.598Z,112.31
2023-05-21T12:22:56.605Z,110.32
2023-05-21T12:23:56.584Z,105.94
2023-05-21T12:24:56.559Z,107.77
2023-05-21T12:25:56.558Z,109.17
2023-05-21T12:26:56.544Z,112.76
2023-05-21T12:27:56.530Z,112.23
2023-05-21T12:28:56.549Z,112.61
2023-05-21T12:29:56.559Z,110.32
2023-05-21T12:30:56.570Z,108.05
2023-05-21T12:31:56.547Z,103.27
2023-05-21T12:32:56.497Z,107.36
2023-05-21T12:33:56.474Z,114.37
2023-05-21T12:34:56.480Z,119.41
2023-05-21T12:35:56.490Z,117.90
2023-05-21T12:36:56.438Z,118.31
2023-05-21T12:37:56.445Z,115.71
2023-05-21T12:38:56.431Z,115.23
2023-05-21T12:39:56.435Z,112.91
2023-05-21T12:40:56.418Z,113.06
2023-05-21T12:41:56.405Z,115.95
2023-05-21T12:42:56.433Z,108.89
2023-05-21T12:43:56.398Z,117.40
2023-05-21T12:44:56.365Z,118.15
2023-05-21T12:45:56.423Z,115.15
2023-05-21T12:46:56.339Z,110.90